createdAt,value
2017-10-01T00:01:28.207Z,20.33
2017-10-01T00:03:58.729Z,19.93
2017-10-01T00:06:29.086Z,24.70
2017-10-01T00:08:59.554Z,30.13
2017-10-01T00:11:30.768Z,16.33
2017-10-01T00:14:01.374Z,20.60
2017-10-01T00:16:31.639Z,20.00
2017-10-01T00:19:02.111Z,20.57
2017-10-01T00:21:32.798Z,16.90
2017-10-01T00:24:03.930Z,23.13
2017-10-01T00:26:34.475Z,19.90
2017-10-01T00:29:05.731Z,19.33
2017-10-01T00:31:35.924Z,21.40
2017-10-01T00:34:10.473Z,12.63
2017-10-01T00:36:40.769Z,11.93
2017-10-01T00:39:11.601Z,11.77
2017-10-01T00:41:42.265Z,8.87
2017-10-01T00:44:14.383Z,9.33
2017-10-01T00:46:44.617Z,7.57
2017-10-01T00:49:14.811Z,10.43
2017-10-01T00:51:47.393Z,15.80
2017-10-01T00:54:18.102Z,11.33
2017-10-01T00:56:48.447Z,14.03
2017-10-01T00:59:19.013Z,9.53
2017-10-01T01:01:49.852Z,11.67
2017-10-01T01:04:20.473Z,9.97
2017-10-01T01:06:52.141Z,12.30
2017-10-01T01:09:22.504Z,6.70
2017-10-01T01:11:52.955Z,15.43
2017-10-01T01:14:23.802Z,14.67
2017-10-01T01:16:54.182Z,10.67
2017-10-01T01:19:24.629Z,8.63
2017-10-01T01:21:54.833Z,8.00
2017-10-01T01:24:25.778Z,9.20
2017-10-01T01:26:57.075Z,5.77
2017-10-01T01:29:27.341Z,11.60
2017-10-01T01:31:58.862Z,7.10
2017-10-01T01:34:29.964Z,5.23
2017-10-01T01:37:01.454Z,6.90
2017-10-01T01:39:31.997Z,6.60
2017-10-01T01:42:02.824Z,9.40
2017-10-01T01:44:34.045Z,6.53
2017-10-01T01:47:04.538Z,7.93
2017-10-01T01:49:35.244Z,12.10
2017-10-01T01:52:06.024Z,8.13
2017-10-01T01:54:37.632Z,8.43
2017-10-01T01:57:09.567Z,11.47
2017-10-01T01:59:40.410Z,7.37
2017-10-01T02:02:10.967Z,4.60
2017-10-01T02:04:41.870Z,10.37
2017-10-01T02:07:12.279Z,7.03
2017-10-01T02:09:45.337Z,5.63
2017-10-01T02:12:15.862Z,7.33
2017-10-01T02:14:47.089Z,10.13
2017-10-01T02:17:18.122Z,9.77
2017-10-01T02:19:48.942Z,9.30
2017-10-01T02:22:19.412Z,7.83
2017-10-01T02:24:50.619Z,7.80
2017-10-01T02:27:21.149Z,8.23
2017-10-01T02:29:52.561Z,7.93
2017-10-01T02:32:23.883Z,17.33
2017-10-01T02:34:54.646Z,10.77
2017-10-01T02:37:26.198Z,8.40
2017-10-01T02:39:56.957Z,7.10
2017-10-01T02:42:31.299Z,9.73
2017-10-01T02:45:02.009Z,10.30
2017-10-01T02:47:33.815Z,17.30
2017-10-01T02:50:04.919Z,8.77
2017-10-01T02:52:36.778Z,20.67
2017-10-01T02:55:08.292Z,21.57
2017-10-01T02:57:38.964Z,23.87
2017-10-01T03:00:12.856Z,35.40
2017-10-01T03:02:44.202Z,36.13
2017-10-01T03:05:15.182Z,46.63
2017-10-01T03:07:46.466Z,47.83
2017-10-01T03:10:18.492Z,38.87
2017-10-01T03:12:49.205Z,48.30
2017-10-01T03:15:20.498Z,58.67
2017-10-01T03:17:51.440Z,55.60
2017-10-01T03:20:22.690Z,58.90
2017-10-01T03:22:54.682Z,69.53
2017-10-01T03:25:27.380Z,65.07
2017-10-01T03:27:58.063Z,34.53
2017-10-01T03:30:29.120Z,55.53
2017-10-01T03:33:00.073Z,67.67
2017-10-01T03:35:31.074Z,66.47
2017-10-01T03:38:02.155Z,54.73
2017-10-01T03:40:33.922Z,66.17
2017-10-01T03:43:04.711Z,66.50
2017-10-01T03:45:35.492Z,65.43
2017-10-01T03:48:06.564Z,69.20
2017-10-01T03:50:37.740Z,83.33
2017-10-01T03:53:09.078Z,82.63
2017-10-01T03:55:40.634Z,65.17
2017-10-01T03:58:11.456Z,53.50
2017-10-01T04:00:46.452Z,49.70
2017-10-01T04:03:16.933Z,69.07
2017-10-01T04:05:48.565Z,62.37
2017-10-01T04:08:19.196Z,54.97
2017-10-01T04:10:50.376Z,66.60
2017-10-01T04:13:21.348Z,61.73
2017-10-01T04:15:51.789Z,47.33
2017-10-01T04:18:22.524Z,61.40
2017-10-01T04:20:54.454Z,35.27
2017-10-01T04:23:25.149Z,40.07
2017-10-01T04:25:56.049Z,55.77
2017-10-01T04:28:27.412Z,170.00
2017-10-01T04:30:58.205Z,182.27
2017-10-01T04:33:30.030Z,172.07
2017-10-01T04:36:00.712Z,67.27
2017-10-01T04:38:31.863Z,89.83
2017-10-01T04:41:03.667Z,142.43
2017-10-01T04:43:33.991Z,30.60
2017-10-01T04:46:04.331Z,45.70
2017-10-01T04:48:34.704Z,43.03
2017-10-01T04:51:05.642Z,36.40
2017-10-01T04:53:36.496Z,37.27
2017-10-01T04:56:07.258Z,45.30
2017-10-01T04:58:38.651Z,26.93
2017-10-01T05:01:09.507Z,28.97
2017-10-01T05:03:40.126Z,99.63
2017-10-01T05:06:10.468Z,239.20
2017-10-01T05:08:40.767Z,54.70
2017-10-01T05:11:12.421Z,27.03
2017-10-01T05:13:42.968Z,36.23
2017-10-01T05:16:13.533Z,91.43
2017-10-01T05:18:43.926Z,49.77
2017-10-01T05:21:14.761Z,58.50
2017-10-01T05:23:45.413Z,53.13
2017-10-01T05:26:18.005Z,52.63
2017-10-01T05:28:49.054Z,54.80
2017-10-01T05:31:20.175Z,37.47
2017-10-01T05:33:53.102Z,43.07
2017-10-01T05:36:24.009Z,37.77
2017-10-01T05:38:54.774Z,45.70
2017-10-01T05:41:26.423Z,35.47
2017-10-01T05:43:57.224Z,36.20
2017-10-01T05:46:28.722Z,30.10
2017-10-01T05:48:59.627Z,33.13
2017-10-01T05:51:31.065Z,38.70
2017-10-01T05:54:02.848Z,44.90
2017-10-01T05:56:33.752Z,30.50
2017-10-01T05:59:04.900Z,40.60
2017-10-01T06:01:36.921Z,37.27
2017-10-01T06:04:09.057Z,29.73
2017-10-01T06:06:39.404Z,33.97
2017-10-01T06:09:09.763Z,32.53
2017-10-01T06:11:41.047Z,39.60
2017-10-01T06:14:12.406Z,28.43
2017-10-01T06:16:43.416Z,34.87
2017-10-01T06:19:14.322Z,38.53
2017-10-01T06:21:45.352Z,29.47
2017-10-01T06:24:18.386Z,45.57
2017-10-01T06:26:50.030Z,41.83
2017-10-01T06:29:21.279Z,47.67
2017-10-01T06:31:52.555Z,40.60
2017-10-01T06:34:23.824Z,37.97
2017-10-01T06:36:56.157Z,43.40
2017-10-01T06:39:27.354Z,34.90
2017-10-01T06:42:00.694Z,44.87
2017-10-01T06:44:32.766Z,46.17
2017-10-01T06:49:46.748Z,47.37
2017-10-01T06:52:18.558Z,40.00
2017-10-01T06:54:54.416Z,46.13
2017-10-01T06:57:25.264Z,50.77
2017-10-01T07:00:00.115Z,43.90
2017-10-01T07:02:37.359Z,39.80
2017-10-01T07:05:10.496Z,42.40
2017-10-01T07:07:43.462Z,40.77
2017-10-01T07:10:22.040Z,42.10
2017-10-01T07:13:09.292Z,46.80
2017-10-01T07:15:49.570Z,50.70
2017-10-01T07:18:24.230Z,41.70
2017-10-01T07:26:40.601Z,47.77
2017-10-01T07:29:26.949Z,48.63
2017-10-01T07:32:09.008Z,59.50
2017-10-01T07:35:02.230Z,57.50
2017-10-01T07:37:41.728Z,58.67
2017-10-01T07:40:26.119Z,55.80
2017-10-01T07:46:11.169Z,70.20
2017-10-01T07:51:47.367Z,62.57
2017-10-01T07:54:30.902Z,58.20
2017-10-01T07:57:06.138Z,67.80
2017-10-01T08:08:13.979Z,51.80
2017-10-01T08:17:06.376Z,59.73
2017-10-01T08:31:07.299Z,45.10
2017-10-01T08:33:51.642Z,36.20
2017-10-01T08:45:06.983Z,33.10
2017-10-01T08:47:59.791Z,35.20
2017-10-01T08:57:21.905Z,26.83
2017-10-01T09:03:02.567Z,27.97
2017-10-01T09:08:41.487Z,29.37
2017-10-01T09:25:52.387Z,20.00
2017-10-01T09:34:21.939Z,17.20
2017-10-01T10:03:04.630Z,10.03
2017-10-01T10:08:50.378Z,17.77
2017-10-01T10:17:29.183Z,9.90
2017-10-01T10:58:39.407Z,12.73
2017-10-01T11:01:46.362Z,28.13
2017-10-01T11:04:24.167Z,14.77
2017-10-01T11:06:55.314Z,11.03
2017-10-01T11:09:26.853Z,11.67
2017-10-01T11:11:57.449Z,18.63
2017-10-01T11:14:27.844Z,12.07
2017-10-01T11:16:58.052Z,9.80
2017-10-01T11:19:29.450Z,12.90
2017-10-01T11:22:00.691Z,12.20
2017-10-01T11:24:30.911Z,10.40
2017-10-01T11:27:01.154Z,10.90
2017-10-01T11:29:31.495Z,8.07
2017-10-01T11:32:02.858Z,12.57
2017-10-01T11:34:33.898Z,9.13
2017-10-01T11:37:04.271Z,6.10
2017-10-01T11:39:34.742Z,9.73
2017-10-01T11:42:06.372Z,7.83
2017-10-01T11:44:37.104Z,13.67
2017-10-01T11:47:07.427Z,9.83
2017-10-01T11:49:37.963Z,6.33
2017-10-01T11:52:08.425Z,8.47
2017-10-01T11:54:40.583Z,8.80
2017-10-01T11:57:12.394Z,5.50
2017-10-01T11:59:43.226Z,6.33
2017-10-01T12:02:14.810Z,9.43
2017-10-01T12:04:46.777Z,6.70
2017-10-01T12:07:17.194Z,4.80
2017-10-01T12:09:48.393Z,6.97
2017-10-01T12:12:19.871Z,16.67
2017-10-01T12:14:50.350Z,11.73
2017-10-01T12:17:20.769Z,12.60
2017-10-01T12:19:52.226Z,8.43
2017-10-01T12:22:22.600Z,8.73
2017-10-01T12:24:53.014Z,8.17
2017-10-01T12:27:23.374Z,13.43
2017-10-01T12:29:53.653Z,10.23
2017-10-01T12:32:24.568Z,14.50
2017-10-01T12:34:55.148Z,12.10
2017-10-01T12:37:25.429Z,9.27
2017-10-01T12:39:55.740Z,14.07
2017-10-01T12:42:25.972Z,8.40
2017-10-01T12:44:56.424Z,7.60
2017-10-01T12:47:27.247Z,7.90
2017-10-01T12:49:57.774Z,6.97
2017-10-01T12:52:28.124Z,5.40
2017-10-01T12:55:00.061Z,9.60
2017-10-01T12:57:30.739Z,6.80
2017-10-01T13:00:03.798Z,9.03
2017-10-01T13:02:35.384Z,7.20
2017-10-01T13:05:06.202Z,8.20
2017-10-01T13:07:36.799Z,8.30
2017-10-01T13:10:07.340Z,6.30
2017-10-01T13:12:37.723Z,9.33
2017-10-01T13:15:09.003Z,5.83
2017-10-01T13:17:39.782Z,10.60
2017-10-01T13:20:10.199Z,10.80
2017-10-01T13:22:40.596Z,6.47
2017-10-01T13:25:12.850Z,6.83
2017-10-01T13:27:45.310Z,4.67
2017-10-01T13:30:17.449Z,8.23
2017-10-01T13:32:50.225Z,6.23
2017-10-01T13:35:21.952Z,4.53
2017-10-01T13:37:52.280Z,7.13
2017-10-01T13:40:23.578Z,6.53
2017-10-01T13:42:55.596Z,6.97
2017-10-01T13:45:27.982Z,5.40
2017-10-01T13:47:59.552Z,6.40
2017-10-01T13:50:31.074Z,7.40
2017-10-01T13:53:02.549Z,9.60
2017-10-01T13:55:33.345Z,4.43
2017-10-01T13:58:03.624Z,8.17
2017-10-01T14:00:34.754Z,4.13
2017-10-01T14:03:05.872Z,5.33
2017-10-01T14:05:42.367Z,6.90
2017-10-01T14:08:12.852Z,7.27
2017-10-01T14:10:43.826Z,5.10
2017-10-01T14:13:15.909Z,12.90
2017-10-01T14:15:47.457Z,5.27
2017-10-01T14:18:17.961Z,6.97
2017-10-01T14:20:48.202Z,8.03
2017-10-01T14:23:19.831Z,4.77
2017-10-01T14:25:50.811Z,5.23
2017-10-01T14:28:26.798Z,5.70
2017-10-01T14:31:01.506Z,3.97
2017-10-01T14:33:34.492Z,6.20
2017-10-01T14:36:06.757Z,6.33
2017-10-01T14:38:39.185Z,5.87
2017-10-01T14:41:09.783Z,5.83
2017-10-01T14:43:40.632Z,6.07
2017-10-01T14:46:10.869Z,7.93
2017-10-01T14:48:41.345Z,7.00
2017-10-01T14:51:14.038Z,5.33
2017-10-01T14:53:44.282Z,7.50
2017-10-01T14:56:14.567Z,9.10
2017-10-01T14:58:45.595Z,6.87
2017-10-01T15:01:16.724Z,8.83
2017-10-01T15:03:52.224Z,4.50
2017-10-01T15:06:22.456Z,4.80
2017-10-01T15:08:53.320Z,6.00
2017-10-01T15:11:23.503Z,10.70
2017-10-01T15:13:55.067Z,9.20
2017-10-01T15:16:29.095Z,6.43
2017-10-01T15:19:01.575Z,4.47
2017-10-01T15:21:35.620Z,6.83
2017-10-01T15:24:06.754Z,5.00
2017-10-01T15:26:39.863Z,7.60
2017-10-01T15:29:17.317Z,7.17
2017-10-01T15:31:47.561Z,4.50
2017-10-01T15:34:18.549Z,3.97
2017-10-01T15:36:48.796Z,6.17
2017-10-01T15:39:19.270Z,6.17
2017-10-01T15:41:51.248Z,5.53
2017-10-01T15:44:23.597Z,7.90
2017-10-01T15:46:57.435Z,5.27
2017-10-01T15:49:30.483Z,6.63
2017-10-01T15:52:01.204Z,6.73
2017-10-01T15:54:34.434Z,6.23
2017-10-01T15:57:07.675Z,3.70
2017-10-01T15:59:49.874Z,5.50
2017-10-01T16:02:22.264Z,6.97
2017-10-01T16:04:53.370Z,3.93
2017-10-01T16:07:23.879Z,5.03
2017-10-01T16:09:56.220Z,5.23
2017-10-01T16:12:31.854Z,9.80
2017-10-01T16:15:02.328Z,12.07
2017-10-01T16:17:36.356Z,3.93
2017-10-01T16:20:10.704Z,7.23
2017-10-01T16:22:45.523Z,6.53
2017-10-01T16:25:17.659Z,6.10
2017-10-01T16:27:52.314Z,9.10
2017-10-01T16:30:29.261Z,14.00
2017-10-01T16:38:41.995Z,12.53
2017-10-01T16:41:14.106Z,8.90
2017-10-01T16:44:11.028Z,5.07
2017-10-01T16:46:41.208Z,6.93
2017-10-01T16:49:16.072Z,6.13
2017-10-01T16:51:52.390Z,5.80
2017-10-01T16:54:32.507Z,4.03
2017-10-01T16:57:16.228Z,8.63
2017-10-01T16:59:52.900Z,7.43
2017-10-01T17:07:03.897Z,6.63
2017-10-01T17:09:38.215Z,7.17
2017-10-01T17:12:25.490Z,7.03
2017-10-01T17:15:07.745Z,6.00
2017-10-01T17:17:43.732Z,8.50
2017-10-01T17:20:26.133Z,10.23
2017-10-01T17:23:09.237Z,7.43
2017-10-01T17:28:38.506Z,6.77
2017-10-01T17:31:19.461Z,8.40
2017-10-01T17:34:10.998Z,7.60
2017-10-01T17:36:57.146Z,8.03
2017-10-01T17:39:36.194Z,10.90
2017-10-01T17:48:33.305Z,6.13
2017-10-01T18:00:30.534Z,4.93
2017-10-01T18:03:15.160Z,5.67
2017-10-01T18:08:58.113Z,6.73
2017-10-01T18:14:17.430Z,5.13
2017-10-01T18:16:53.498Z,5.50
2017-10-01T18:28:49.160Z,10.97
2017-10-01T18:31:33.733Z,7.80
2017-10-01T18:42:49.196Z,10.70
2017-10-01T18:45:53.476Z,6.33
2017-10-01T18:48:34.843Z,10.00
2017-10-01T18:51:20.237Z,7.30
2017-10-01T18:54:08.466Z,6.13
2017-10-01T18:56:59.963Z,6.40
2017-10-01T18:59:37.577Z,6.73
2017-10-01T19:05:11.494Z,8.53
2017-10-01T19:08:08.301Z,8.70
2017-10-01T19:10:46.902Z,10.47
2017-10-01T19:13:35.514Z,9.20
2017-10-01T19:16:27.581Z,14.77
2017-10-01T19:21:57.291Z,8.03
2017-10-01T19:24:28.691Z,6.60
2017-10-01T19:27:06.508Z,9.40
2017-10-01T19:29:37.449Z,8.33
2017-10-01T19:32:08.991Z,12.73
2017-10-01T19:34:39.556Z,8.17
2017-10-01T19:37:11.285Z,7.73
2017-10-01T19:39:41.554Z,5.23
2017-10-01T19:42:12.087Z,10.30
2017-10-01T19:44:44.116Z,11.00
2017-10-01T19:47:14.433Z,8.30
2017-10-01T19:49:45.236Z,8.77
